Current Weather Conditions: station LCNA2

sailwx.info

Wind from 290 at 2 knots gusting 5

Air temperature 13.5° C
Dewpoint 12.9° C

Last reported at 2020-Aug-12 04:10 UTC.
Time now 2020-Aug-12 05:41 UTC

Location: N 56°04' W 132°42'.
View on Google Maps.

See reports from other nearby stations

  
Tides and Currents Weather Stations Pressure Air Temp Water Temp Dewpoint Dewpoint Depression Visibility Wind Speed Wind Dir Waves Ship Positions
date/time (UTC)wind fromknots sea level pressurealtimeterstation pressurevisibilityair tempwater tempwave heightnotes
2020-Aug-12 04:10 290 2 gusting 5 13.5
2020-Aug-12 03:10 260 5 gusting 6 13.5
2020-Aug-12 02:10 230 7 gusting 8 12.9
2020-Aug-12 01:10 350 7 gusting 13 14.2
2020-Aug-12 00:10 350 6 gusting 6 15.0
2020-Aug-11 23:10 350 6 gusting 6 14.7
2020-Aug-11 22:10 320 5 gusting 5 16.2
2020-Aug-11 21:10 310 5 gusting 5 16.0
2020-Aug-11 20:10 320 5 gusting 6 14.3
2020-Aug-11 19:10 310 5 gusting 7 13.7
2020-Aug-11 18:10 310 5 gusting 6 13.1
2020-Aug-11 17:10 320 5 gusting 6 12.6
2020-Aug-11 16:10 280 5 gusting 7 11.8
2020-Aug-11 15:10 270 6 gusting 7 11.5
2020-Aug-11 14:10 280 6 gusting 7 11.5
2020-Aug-11 13:10 290 6 gusting 7 11.5
2020-Aug-11 12:10 290 4 gusting 6 11.8
2020-Aug-11 11:10 280 2 gusting 4 11.9
2020-Aug-11 09:10 270 5 gusting 6 12.0
2020-Aug-11 08:10 250 8 gusting 9 12.0
2020-Aug-11 07:10 250 4 gusting 5 12.1
2020-Aug-11 06:10 220 4 gusting 6 12.3
2020-Aug-11 05:10 230 5 gusting 6 12.1
2020-Aug-11 04:10 360 0 gusting 2 12.1
2020-Aug-11 03:10 240 7 gusting 15 12.7
2020-Aug-11 02:10 13.1
2020-Aug-11 01:10 250 6 gusting 9 13.0
2020-Aug-11 00:10 250 11 gusting 13 12.9
2020-Aug-10 23:10 320 1 gusting 4 13.0
2020-Aug-10 22:10 260 8 gusting 11 12.7
2020-Aug-10 21:10 160 8 gusting 11 13.4
2020-Aug-10 20:10 110 4 gusting 6 13.9
2020-Aug-10 19:10 160 4 gusting 6 12.9
2020-Aug-10 18:10 130 4 gusting 7 12.7
2020-Aug-10 17:10 080 2 gusting 2 12.9
2020-Aug-10 16:10 250 1 gusting 2 13.3
2020-Aug-10 15:10 200 6 gusting 8 12.8
2020-Aug-10 14:10 230 8 gusting 13 12.8
2020-Aug-10 13:10 240 7 gusting 11 12.9
2020-Aug-10 12:10 230 5 gusting 11 13.0
2020-Aug-10 11:10 240 8 gusting 13 12.8
2020-Aug-10 10:10 230 13 gusting 19 13.1
2020-Aug-10 09:10 220 9 gusting 15 13.3
2020-Aug-10 08:10 180 6 gusting 9 12.9
2020-Aug-10 07:10 200 13 gusting 20 13.8
2020-Aug-10 06:10 130 6 gusting 9 12.9